Terminal Aerodrome Forecast
Issued by NWS

Home | Current Version | Previous Version | Text Only | Print | Product List | Glossary On
Versions: 1 2 3 4 5 6 7 8 9 10 11 12 13 14 15 16 17
000
FTUS46 KMTR 191000 AAA
TAFMRY
TAF AMD
KMRY 191059Z 1911/2006 22005KT P6SM OVC010
     FM191700 24004KT P6SM SCT007 OVC015
     FM192000 28010KT P6SM FEW015
     FM200200 24005KT P6SM OVC015=

USA.gov is the U.S. government's official web portal to all federal, state and local government web resources and services.